ZKDAY RCWA-RCBS
Flight info
| Callsign | ZKDAY |
|---|---|
| Flight time | N/A |
| Altitude | 5000 |
| Route | WP153 T11 CUBON/K0207S0150 CUBON1C |
| Aircraft | C172/L-SFG/C |
Departure
| Time | 2026-04-30 14:41 |
|---|---|
| Airport | Wang'an Airport (RCWA) |
Arrival
| Time | N/A |
|---|---|
| Airport | Kinmen Airport (RCBS) |
| Time | Latitude | Longitude | Altitude | Speed | Heading |
|---|---|---|---|---|---|
| 2026-04-30 14:34 | 23.36722 | 119.50214 | 113 ft | 0 kts | 291° |
| 2026-04-30 14:38 | 23.36732 | 119.50211 | 114 ft | 4 kts | 42° |
| 2026-04-30 14:38 | 23.36730 | 119.50249 | 114 ft | 7 kts | 106° |
| 2026-04-30 14:38 | 23.36726 | 119.50267 | 114 ft | 0 kts | 73° |
| 2026-04-30 14:38 | 23.36727 | 119.50271 | 114 ft | 2 kts | 98° |
| 2026-04-30 14:39 | 23.36698 | 119.50268 | 115 ft | 8 kts | 218° |
| 2026-04-30 14:39 | 23.36676 | 119.50263 | 115 ft | 2 kts | 55° |
| 2026-04-30 14:39 | 23.36686 | 119.50270 | 115 ft | 0 kts | 14° |
| 2026-04-30 14:40 | 23.36692 | 119.50271 | 115 ft | 8 kts | 14° |
| 2026-04-30 14:40 | 23.36936 | 119.50374 | 127 ft | 63 kts | 23° |
| 2026-04-30 14:40 | 23.37420 | 119.50563 | 307 ft | 77 kts | 19° |
| 2026-04-30 14:40 | 23.38003 | 119.50757 | 321 ft | 95 kts | 19° |
| 2026-04-30 14:41 | 23.38650 | 119.50928 | 458 ft | 98 kts | 12° |
| 2026-04-30 14:41 | 23.39337 | 119.50779 | 545 ft | 112 kts | 334° |
| 2026-04-30 14:41 | 23.39845 | 119.50149 | 768 ft | 110 kts | 317° |
| 2026-04-30 14:41 | 23.40281 | 119.49436 | 837 ft | 117 kts | 314° |
| 2026-04-30 14:42 | 23.40725 | 119.48695 | 906 ft | 116 kts | 314° |
| 2026-04-30 14:42 | 23.41180 | 119.47981 | 958 ft | 117 kts | 315° |
| 2026-04-30 14:42 | 23.41686 | 119.47285 | 981 ft | 116 kts | 324° |
| 2026-04-30 14:42 | 23.42307 | 119.46718 | 991 ft | 117 kts | 331° |
| 2026-04-30 14:43 | 23.42959 | 119.46179 | 1006 ft | 117 kts | 333° |
| 2026-04-30 14:43 | 23.43606 | 119.45664 | 1078 ft | 114 kts | 333° |
| 2026-04-30 14:43 | 23.44247 | 119.45157 | 1150 ft | 114 kts | 333° |
| 2026-04-30 14:43 | 23.44884 | 119.44637 | 1210 ft | 116 kts | 334° |
| 2026-04-30 14:44 | 23.45530 | 119.44087 | 1207 ft | 118 kts | 334° |
| 2026-04-30 14:44 | 23.46171 | 119.43530 | 1204 ft | 118 kts | 334° |
| 2026-04-30 14:44 | 23.46812 | 119.42993 | 1204 ft | 118 kts | 335° |
| 2026-04-30 14:44 | 23.47494 | 119.42509 | 1205 ft | 117 kts | 337° |
| 2026-04-30 14:45 | 23.48182 | 119.42051 | 1203 ft | 115 kts | 338° |
| 2026-04-30 14:45 | 23.48867 | 119.41599 | 1201 ft | 115 kts | 339° |
| 2026-04-30 14:45 | 23.49560 | 119.41146 | 1202 ft | 117 kts | 339° |
| 2026-04-30 14:45 | 23.50263 | 119.40681 | 1201 ft | 119 kts | 339° |
| 2026-04-30 14:46 | 23.50967 | 119.40207 | 1202 ft | 119 kts | 339° |
| 2026-04-30 14:46 | 23.51671 | 119.39732 | 1183 ft | 119 kts | 338° |
| 2026-04-30 14:46 | 23.52375 | 119.39268 | 1157 ft | 120 kts | 339° |
| 2026-04-30 14:46 | 23.53092 | 119.38805 | 1132 ft | 120 kts | 338° |
| 2026-04-30 14:47 | 23.53819 | 119.38365 | 1101 ft | 119 kts | 338° |
| 2026-04-30 14:47 | 23.54543 | 119.37924 | 1080 ft | 119 kts | 342° |
| 2026-04-30 14:47 | 23.55254 | 119.37461 | 1065 ft | 120 kts | 342° |
| 2026-04-30 14:47 | 23.55961 | 119.36968 | 1042 ft | 121 kts | 339° |
| 2026-04-30 14:48 | 23.56670 | 119.36478 | 1030 ft | 121 kts | 340° |
| 2026-04-30 14:48 | 23.57383 | 119.35984 | 1020 ft | 121 kts | 339° |
| 2026-04-30 14:48 | 23.58095 | 119.35496 | 1010 ft | 120 kts | 339° |
| 2026-04-30 14:48 | 23.58797 | 119.35017 | 999 ft | 118 kts | 339° |
| 2026-04-30 14:49 | 23.59481 | 119.34548 | 994 ft | 117 kts | 339° |
| 2026-04-30 14:49 | 23.60158 | 119.34066 | 991 ft | 116 kts | 339° |
| 2026-04-30 14:49 | 23.60826 | 119.33583 | 993 ft | 115 kts | 339° |
| 2026-04-30 14:49 | 23.61491 | 119.33101 | 995 ft | 115 kts | 339° |
| 2026-04-30 14:50 | 23.62820 | 119.32130 | 999 ft | 115 kts | 339° |
| 2026-04-30 14:50 | 23.63488 | 119.31647 | 1001 ft | 116 kts | 339° |
| 2026-04-30 14:51 | 23.64811 | 119.30667 | 1066 ft | 112 kts | 339° |
| 2026-04-30 14:51 | 23.65434 | 119.30178 | 1146 ft | 110 kts | 339° |
| 2026-04-30 14:51 | 23.66684 | 119.29217 | 1309 ft | 110 kts | 339° |
| 2026-04-30 14:52 | 23.67306 | 119.28731 | 1382 ft | 110 kts | 339° |
| 2026-04-30 14:52 | 23.68556 | 119.27780 | 1533 ft | 110 kts | 339° |
| 2026-04-30 14:52 | 23.69190 | 119.27316 | 1621 ft | 110 kts | 340° |
| 2026-04-30 14:53 | 23.70406 | 119.26285 | 1777 ft | 114 kts | 330° |
| 2026-04-30 14:53 | 23.70968 | 119.25658 | 1850 ft | 117 kts | 326° |
| 2026-04-30 14:54 | 23.72057 | 119.24330 | 1986 ft | 118 kts | 324° |
| 2026-04-30 14:54 | 23.73129 | 119.22948 | 2118 ft | 118 kts | 324° |
| 2026-04-30 14:55 | 23.74220 | 119.21622 | 2268 ft | 118 kts | 324° |
| 2026-04-30 14:55 | 23.74742 | 119.20955 | 2344 ft | 116 kts | 324° |
| 2026-04-30 14:55 | 23.75762 | 119.19601 | 2493 ft | 115 kts | 324° |
| 2026-04-30 14:56 | 23.76766 | 119.18209 | 2646 ft | 118 kts | 323° |
| 2026-04-30 14:56 | 23.77813 | 119.16880 | 2788 ft | 115 kts | 325° |
| 2026-04-30 14:57 | 23.78346 | 119.16229 | 2878 ft | 114 kts | 321° |
| 2026-04-30 14:57 | 23.79473 | 119.14992 | 2978 ft | 116 kts | 322° |
| 2026-04-30 14:58 | 23.80585 | 119.13725 | 2999 ft | 117 kts | 324° |
| 2026-04-30 14:58 | 23.81147 | 119.13075 | 3010 ft | 118 kts | 324° |
| 2026-04-30 14:58 | 23.82293 | 119.11783 | 3025 ft | 121 kts | 323° |
| 2026-04-30 14:59 | 23.83473 | 119.10438 | 3015 ft | 124 kts | 317° |
| 2026-04-30 15:00 | 23.85071 | 119.08262 | 3017 ft | 123 kts | 316° |
| 2026-04-30 15:00 | 23.86066 | 119.06727 | 3019 ft | 124 kts | 315° |
| 2026-04-30 15:01 | 23.87082 | 119.05213 | 3021 ft | 124 kts | 314° |
| 2026-04-30 15:01 | 23.87608 | 119.04465 | 3017 ft | 124 kts | 315° |
| 2026-04-30 15:01 | 23.88587 | 119.02923 | 3005 ft | 122 kts | 315° |
| 2026-04-30 15:02 | 23.89047 | 119.02160 | 3010 ft | 120 kts | 314° |
| 2026-04-30 15:02 | 23.89506 | 119.01414 | 3014 ft | 120 kts | 315° |
| 2026-04-30 15:03 | 23.90979 | 118.99189 | 3022 ft | 122 kts | 314° |
| 2026-04-30 15:03 | 23.92036 | 118.97711 | 3024 ft | 124 kts | 315° |
| 2026-04-30 15:04 | 23.93016 | 118.96168 | 3029 ft | 122 kts | 315° |
| 2026-04-30 15:04 | 23.94473 | 118.93867 | 3034 ft | 125 kts | 315° |
| 2026-04-30 15:05 | 23.95949 | 118.91493 | 3015 ft | 126 kts | 315° |
| 2026-04-30 15:06 | 23.96942 | 118.89930 | 3013 ft | 125 kts | 315° |
| 2026-04-30 15:06 | 23.97900 | 118.88368 | 3034 ft | 125 kts | 315° |
| 2026-04-30 15:07 | 23.98853 | 118.86761 | 3031 ft | 126 kts | 315° |
| 2026-04-30 15:07 | 23.99798 | 118.85149 | 3025 ft | 125 kts | 314° |
| 2026-04-30 15:08 | 24.00855 | 118.83625 | 3030 ft | 127 kts | 315° |
| 2026-04-30 15:08 | 24.02429 | 118.81312 | 3026 ft | 126 kts | 317° |
| 2026-04-30 15:09 | 24.03421 | 118.79718 | 3035 ft | 127 kts | 316° |
| 2026-04-30 15:09 | 24.04404 | 118.78123 | 3035 ft | 126 kts | 315° |
| 2026-04-30 15:10 | 24.05398 | 118.76559 | 3026 ft | 126 kts | 314° |
| 2026-04-30 15:11 | 24.07423 | 118.73454 | 3036 ft | 126 kts | 314° |
| 2026-04-30 15:11 | 24.08499 | 118.71915 | 3024 ft | 128 kts | 315° |
| 2026-04-30 15:12 | 24.10093 | 118.69641 | 3010 ft | 124 kts | 315° |
| 2026-04-30 15:13 | 24.11142 | 118.68170 | 3027 ft | 124 kts | 315° |
| 2026-04-30 15:14 | 24.13200 | 118.65037 | 3022 ft | 128 kts | 314° |
| 2026-04-30 15:14 | 24.14668 | 118.62605 | 3016 ft | 129 kts | 311° |
| 2026-04-30 15:16 | 24.16987 | 118.58435 | 3024 ft | 128 kts | 310° |
| 2026-04-30 15:17 | 24.18920 | 118.55176 | 2896 ft | 133 kts | 311° |
| 2026-04-30 15:18 | 24.21301 | 118.50675 | 2539 ft | 142 kts | 305° |
| 2026-04-30 15:19 | 24.22625 | 118.47784 | 2312 ft | 142 kts | 305° |